aviador You're here:

KRCM Decoded Metar

in _UNIDENTIFIED
Report Time2018-05-28 04:55:00
UTC Time2018-05-28 04:53:20
Flight Rules vfr VFR
Wind150° at 04 kt
W.Decomp.*RWY 13: 3.9 kt HW 0.9 kt RCW
RWY 18: 3.2 kt HW 2.4 kt LCW
W.Rank150° ranks 3
Current wind is below 150° avg. (6.7)
Visibility9999 m
Phenomena:N/A
Clouds:N/A
Expected CloudBase > 1,600 ft AGL from Temp-Dew spread
CeilingNone
Temp24°C (ISA +11)
Dew Point20°C (78% RH)
QNH1013 hPa
Density Alt2,343 ft
Elevation801 ft
Report Wrong Elevation
Raw Report
KRCM 280455Z AUTO 15004KT 10SM CLR 24/20 A2991 RMK AO2=

Extra information for KRCM:More info

Metar Taf Metar & Taf Last 4 Metars F.Rules Stats Wind Profile Meteogram Temp Stats Metar ALERT Operation Metar Decoded Social comments